Time;durP1;ratioP1;P1;durP2;ratioP2;P2;SDS_P1;SDS_P2;PMS_P1;PMS_P2;Temp;Humidity;BMP_temperature;BMP_pressure;BME280_temperature;BME280_humidity;BME280_pressure;Samples;Min_cycle;Max_cycle;Signal;HPM_P1;HPM_P2
2021/07/30 00:02:19;;;;;;;5.88;1.58;;;10.30;97.20;;;;;;5080571;28;20398;-91
2021/07/30 00:04:46;;;;;;;7.80;2.05;;;10.40;97.20;;;;;;5079781;28;20427;-91
2021/07/30 00:07:14;;;;;;;6.80;2.00;;;10.40;97.10;;;;;;5079280;28;20382;-91
2021/07/30 00:09:41;;;;;;;5.53;1.65;;;10.40;95.50;;;;;;5065231;28;20406;-89
2021/07/30 00:12:08;;;;;;;9.02;2.60;;;10.50;97.30;;;;;;5078025;28;20413;-92
2021/07/30 00:14:35;;;;;;;7.88;1.95;;;10.50;97.30;;;;;;5083056;28;20761;-92
2021/07/30 00:17:02;;;;;;;6.10;1.75;;;10.70;96.00;;;;;;5075998;28;20402;-93
2021/07/30 00:19:29;;;;;;;6.22;1.70;;;10.70;94.90;;;;;;5062455;28;20414;-93
2021/07/30 00:21:56;;;;;;;5.85;1.92;;;10.90;95.10;;;;;;5086795;28;20405;-91
2021/07/30 00:24:23;;;;;;;9.00;2.07;;;10.90;95.30;;;;;;5094957;28;20429;-92
2021/07/30 00:26:50;;;;;;;8.07;1.90;;;11.00;95.10;;;;;;5060016;28;20371;-90
2021/07/30 00:29:18;;;;;;;6.07;1.50;;;11.10;94.90;;;;;;5066802;28;20386;-89
2021/07/30 00:31:45;;;;;;;4.40;1.60;;;11.20;94.20;;;;;;5093676;28;20390;-92
2021/07/30 00:34:12;;;;;;;6.75;1.88;;;11.20;94.10;;;;;;5086529;28;20454;-90
2021/07/30 00:36:39;;;;;;;7.63;1.80;;;11.20;94.00;;;;;;5077884;28;20479;-91
2021/07/30 00:39:06;;;;;;;7.57;1.70;;;11.30;93.30;;;;;;5090533;28;20390;-92
2021/07/30 00:41:35;;;;;;;6.93;1.83;;;11.30;93.50;;;;;;5079782;28;20392;-91
2021/07/30 00:44:02;;;;;;;6.47;2.00;;;11.30;93.10;;;;;;5081639;28;20354;-91
2021/07/30 00:46:30;;;;;;;7.15;1.88;;;11.30;92.50;;;;;;5075131;28;20424;-94
2021/07/30 00:48:58;;;;;;;6.43;2.00;;;11.30;92.90;;;;;;5078954;28;20398;-94
2021/07/30 00:51:27;;;;;;;7.10;1.77;;;11.40;92.70;;;;;;5075627;28;20378;-95
2021/07/30 00:53:55;;;;;;;6.72;1.90;;;11.40;93.00;;;;;;5054760;28;20394;-94
2021/07/30 00:56:23;;;;;;;8.40;1.70;;;11.50;93.70;;;;;;5067173;28;20422;-95
2021/07/30 00:58:51;;;;;;;4.28;1.77;;;11.60;94.10;;;;;;5064972;28;20401;-93
2021/07/30 01:01:18;;;;;;;7.80;2.00;;;11.80;93.70;;;;;;5070850;28;20412;-92
2021/07/30 01:03:45;;;;;;;7.25;1.70;;;11.90;92.50;;;;;;5066598;28;20382;-94
2021/07/30 01:06:13;;;;;;;6.18;1.77;;;12.00;92.20;;;;;;5045654;28;20411;-94
2021/07/30 01:08:40;;;;;;;6.93;1.87;;;12.10;91.70;;;;;;5051863;28;20794;-96
2021/07/30 01:11:07;;;;;;;7.25;1.70;;;12.10;91.70;;;;;;5067717;28;20774;-94
2021/07/30 01:13:35;;;;;;;5.10;1.50;;;12.10;90.80;;;;;;5072711;28;20440;-91
2021/07/30 01:16:02;;;;;;;4.32;1.58;;;12.10;90.30;;;;;;5056810;28;20489;-94
2021/07/30 01:18:30;;;;;;;5.67;1.50;;;12.20;87.10;;;;;;5072968;28;20447;-94
2021/07/30 01:21:31;;;;;;;4.40;1.45;;;12.20;89.60;;;;;;5057881;28;20404;-95
2021/07/30 01:23:59;;;;;;;4.90;1.53;;;12.40;87.90;;;;;;5069542;28;20811;-90
2021/07/30 01:26:28;;;;;;;2.85;1.30;;;12.40;87.60;;;;;;5070957;28;20401;-89
2021/07/30 01:28:56;;;;;;;7.78;1.85;;;12.40;88.40;;;;;;5069364;28;20393;-92
2021/07/30 01:31:23;;;;;;;5.72;1.45;;;12.40;87.80;;;;;;5062566;28;20457;-90
2021/07/30 01:33:50;;;;;;;5.18;1.40;;;12.40;87.30;;;;;;5068505;28;20370;-89
2021/07/30 01:36:17;;;;;;;5.50;1.53;;;12.50;85.20;;;;;;5070417;28;20966;-89
2021/07/30 01:38:44;;;;;;;3.97;1.43;;;12.60;87.10;;;;;;5069623;28;20447;-93
2021/07/30 01:41:11;;;;;;;3.55;1.30;;;12.60;87.10;;;;;;5068505;28;20398;-87
2021/07/30 01:43:39;;;;;;;7.10;1.73;;;12.90;85.80;;;;;;5061418;28;20409;-91
2021/07/30 01:46:07;;;;;;;2.77;1.20;;;13.00;84.20;;;;;;5066427;28;20494;-91
2021/07/30 01:48:34;;;;;;;5.15;1.80;;;13.10;83.90;;;;;;5070066;28;20813;-93
2021/07/30 01:51:01;;;;;;;4.68;1.70;;;13.20;82.00;;;;;;5076801;28;20406;-90
2021/07/30 01:53:28;;;;;;;4.60;1.40;;;13.30;81.00;;;;;;5077551;28;20415;-93
2021/07/30 01:55:55;;;;;;;3.97;1.70;;;13.30;81.60;;;;;;5075349;28;20422;-91
2021/07/30 01:58:22;;;;;;;6.88;1.67;;;13.40;82.70;;;;;;5072010;28;20497;-93
2021/07/30 02:00:51;;;;;;;4.60;1.60;;;13.40;82.10;;;;;;5066841;28;20406;-91
2021/07/30 02:03:18;;;;;;;4.72;1.60;;;13.40;84.00;;;;;;5069734;28;20398;-93
2021/07/30 02:05:45;;;;;;;5.47;1.73;;;13.70;82.90;;;;;;5054068;28;20475;-91
2021/07/30 02:08:12;;;;;;;5.65;1.83;;;13.70;83.50;;;;;;5071275;28;20393;-92
2021/07/30 02:10:40;;;;;;;4.25;1.73;;;13.70;81.40;;;;;;5070709;28;20919;-92
2021/07/30 02:15:52;;;;;;;4.97;1.65;;;13.70;83.20;;;;;;5075011;28;20447;-93
2021/07/30 02:18:19;;;;;;;5.00;1.80;;;13.70;83.10;;;;;;5070845;28;20397;-96
2021/07/30 02:20:47;;;;;;;6.65;1.80;;;13.80;81.70;;;;;;5071803;28;20413;-92
2021/07/30 02:23:14;;;;;;;5.45;2.00;;;13.90;83.90;;;;;;5073460;28;20413;-95
2021/07/30 02:25:41;;;;;;;5.95;1.90;;;13.90;81.90;;;;;;5080896;28;20409;-94
2021/07/30 02:28:28;;;;;;;4.25;1.80;;;13.90;82.40;;;;;;5079306;28;20435;-91
2021/07/30 02:31:04;;;;;;;4.43;1.90;;;14.00;82.90;;;;;;5068800;28;20393;-95
2021/07/30 02:33:31;;;;;;;4.20;1.50;;;14.10;85.70;;;;;;5065049;28;20398;-94
2021/07/30 02:35:58;;;;;;;2.40;1.48;;;14.30;82.10;;;;;;5058891;28;20736;-92
2021/07/30 02:38:25;;;;;;;5.20;1.70;;;14.40;81.40;;;;;;5090144;28;20415;-93
2021/07/30 02:40:52;;;;;;;5.75;1.70;;;14.40;81.10;;;;;;5074280;28;20433;-93
2021/07/30 02:43:19;;;;;;;4.22;1.40;;;14.50;79.00;;;;;;5075809;28;20394;-92
2021/07/30 02:45:48;;;;;;;3.15;1.25;;;14.60;76.80;;;;;;5070283;28;20768;-93
2021/07/30 02:48:15;;;;;;;4.60;1.35;;;14.60;75.40;;;;;;5072867;28;20386;-90
2021/07/30 02:50:42;;;;;;;3.00;1.20;;;14.60;74.90;;;;;;5076388;28;20424;-95
2021/07/30 02:53:09;;;;;;;3.35;1.27;;;14.60;77.60;;;;;;5045533;28;20888;-95
2021/07/30 02:55:36;;;;;;;2.85;1.00;;;14.80;78.60;;;;;;5069532;28;20417;-96
2021/07/30 02:58:03;;;;;;;3.38;1.15;;;15.00;75.50;;;;;;5073139;28;20396;-93
2021/07/30 03:00:30;;;;;;;2.35;1.00;;;15.10;75.70;;;;;;5067567;28;20408;-92
2021/07/30 03:02:57;;;;;;;4.50;1.30;;;15.10;74.70;;;;;;5073879;28;20413;-92
2021/07/30 03:05:24;;;;;;;2.53;1.27;;;15.20;76.30;;;;;;5073182;28;20422;-92
2021/07/30 03:07:51;;;;;;;4.97;1.60;;;15.20;74.90;;;;;;5071313;28;20403;-91
2021/07/30 03:10:18;;;;;;;3.90;1.65;;;15.20;73.00;;;;;;5070749;28;20529;-94
2021/07/30 03:12:45;;;;;;;3.15;1.42;;;15.10;74.90;;;;;;5075705;28;20398;-95
2021/07/30 03:15:18;;;;;;;4.38;1.35;;;15.10;77.70;;;;;;5078675;28;20446;-94
2021/07/30 03:17:47;;;;;;;6.05;1.48;;;15.30;76.60;;;;;;5064851;28;20467;-95
2021/07/30 03:20:14;;;;;;;3.92;1.45;;;15.30;76.70;;;;;;5089119;28;20398;-93
2021/07/30 03:22:49;;;;;;;3.15;1.67;;;15.20;76.90;;;;;;5081202;28;20497;-93
2021/07/30 03:25:16;;;;;;;6.63;1.80;;;15.20;75.90;;;;;;5073747;28;20377;-91
2021/07/30 03:27:43;;;;;;;3.83;1.30;;;15.30;75.40;;;;;;5070733;28;20879;-92
2021/07/30 03:30:11;;;;;;;4.28;1.70;;;15.30;76.90;;;;;;5072014;28;20729;-91
2021/07/30 03:32:38;;;;;;;4.72;1.17;;;15.30;76.20;;;;;;5071168;28;20849;-92
2021/07/30 03:35:06;;;;;;;3.22;1.15;;;15.40;73.60;;;;;;5051811;28;20382;-91
2021/07/30 03:37:33;;;;;;;3.35;1.42;;;15.40;75.20;;;;;;5070106;28;20381;-91
2021/07/30 03:40:00;;;;;;;2.83;1.40;;;15.50;74.00;;;;;;5071420;28;20489;-95
2021/07/30 03:42:27;;;;;;;2.85;1.40;;;15.70;73.90;;;;;;5054238;28;20393;-95
2021/07/30 03:44:54;;;;;;;2.47;1.23;;;15.80;74.00;;;;;;5072526;28;20386;-94
2021/07/30 03:47:21;;;;;;;3.20;1.38;;;16.00;70.90;;;;;;5092894;28;20388;-92
2021/07/30 03:49:48;;;;;;;3.63;1.45;;;16.10;72.40;;;;;;5093014;28;20373;-96
2021/07/30 03:52:18;;;;;;;4.20;1.40;;;16.20;70.20;;;;;;5089349;28;20423;-92
2021/07/30 03:54:47;;;;;;;3.05;1.80;;;16.20;71.50;;;;;;5085752;28;20376;-94
2021/07/30 03:57:14;;;;;;;3.20;1.55;;;16.30;70.20;;;;;;5077334;28;20369;-94
2021/07/30 03:59:41;;;;;;;2.92;1.85;;;16.20;69.10;;;;;;5090705;28;20991;-92
2021/07/30 04:02:08;;;;;;;3.60;1.75;;;16.20;66.50;;;;;;5100179;28;20471;-94
2021/07/30 04:04:36;;;;;;;3.63;1.50;;;16.10;65.20;;;;;;5100100;28;20914;-93
2021/07/30 04:07:03;;;;;;;3.65;1.50;;;16.10;65.40;;;;;;5099037;28;20381;-93
2021/07/30 04:09:30;;;;;;;4.07;1.58;;;16.20;64.00;;;;;;5113144;28;20384;-94
2021/07/30 04:11:56;;;;;;;3.55;1.50;;;16.10;66.40;;;;;;5098754;28;20466;-94
2021/07/30 04:14:25;;;;;;;3.55;1.45;;;16.10;65.60;;;;;;5102022;28;20469;-92
2021/07/30 04:16:52;;;;;;;2.83;1.45;;;16.10;64.10;;;;;;5106321;28;20388;-92
2021/07/30 04:19:19;;;;;;;2.70;1.30;;;16.10;63.70;;;;;;5095935;28;20457;-90
2021/07/30 04:21:46;;;;;;;3.00;1.50;;;16.20;62.50;;;;;;5099580;28;20392;-93
2021/07/30 04:24:13;;;;;;;3.57;1.60;;;16.30;64.80;;;;;;5080574;28;20389;-95
2021/07/30 04:26:40;;;;;;;3.83;1.42;;;16.20;64.90;;;;;;5095822;28;20858;-95
2021/07/30 04:29:08;;;;;;;4.63;1.65;;;16.20;64.80;;;;;;5093275;28;20391;-94
2021/07/30 04:31:41;;;;;;;3.50;1.58;;;16.30;65.20;;;;;;5093576;28;20408;-96
2021/07/30 04:34:08;;;;;;;3.77;1.23;;;16.30;64.80;;;;;;5095612;28;20392;-91
2021/07/30 04:36:35;;;;;;;2.40;1.20;;;16.30;65.40;;;;;;5092258;28;20483;-91
2021/07/30 04:39:03;;;;;;;3.50;1.10;;;16.30;66.30;;;;;;5068185;28;20433;-90
2021/07/30 04:41:30;;;;;;;3.22;0.93;;;16.40;63.60;;;;;;5095267;28;20870;-93
2021/07/30 04:43:59;;;;;;;4.80;0.90;;;16.40;63.10;;;;;;5097454;28;20395;-94
2021/07/30 04:46:26;;;;;;;3.08;1.10;;;16.30;64.10;;;;;;5089118;28;20400;-94
2021/07/30 04:48:53;;;;;;;3.88;1.33;;;16.20;64.40;;;;;;5054245;28;20392;-91
2021/07/30 04:51:20;;;;;;;2.72;0.90;;;16.20;65.10;;;;;;5071478;28;20378;-90
2021/07/30 04:53:49;;;;;;;2.30;0.82;;;16.10;65.10;;;;;;5076258;28;20473;-92
2021/07/30 04:56:20;;;;;;;1.90;0.93;;;16.10;63.40;;;;;;5057400;28;20435;-90
2021/07/30 04:58:48;;;;;;;2.30;1.00;;;16.00;65.00;;;;;;5078111;28;20390;-93
2021/07/30 05:01:15;;;;;;;2.70;0.80;;;16.00;65.60;;;;;;5074476;28;20493;-92
2021/07/30 05:03:42;;;;;;;2.30;0.73;;;16.00;63.40;;;;;;5058101;28;20390;-92
2021/07/30 05:06:27;;;;;;;4.47;1.05;;;15.90;63.20;;;;;;5073484;28;20402;-90
2021/07/30 05:08:54;;;;;;;2.78;0.70;;;15.90;63.80;;;;;;5077312;28;20394;-93
2021/07/30 05:11:21;;;;;;;2.00;0.70;;;15.90;62.80;;;;;;5051121;28;20486;-92
2021/07/30 05:13:49;;;;;;;3.03;1.33;;;15.90;62.60;;;;;;5060708;28;20405;-90
2021/07/30 05:16:16;;;;;;;2.40;1.57;;;15.90;61.60;;;;;;5072404;28;20406;-90
2021/07/30 05:18:43;;;;;;;4.50;2.60;;;15.90;62.80;;;;;;5074498;28;20491;-89
2021/07/30 05:21:15;;;;;;;3.45;1.67;;;15.90;62.40;;;;;;5069344;28;20402;-89
2021/07/30 05:23:43;;;;;;;1.53;0.67;;;15.90;63.20;;;;;;5080027;28;20884;-94
2021/07/30 05:26:11;;;;;;;2.20;0.70;;;15.90;63.30;;;;;;5072983;28;20425;-90
2021/07/30 05:28:38;;;;;;;4.43;2.58;;;15.90;61.50;;;;;;5070449;28;20480;-89
2021/07/30 05:31:05;;;;;;;6.05;2.70;;;16.00;61.50;;;;;;5072325;28;20461;-89
2021/07/30 05:33:32;;;;;;;9.43;4.55;;;15.90;62.40;;;;;;5071164;28;20393;-89
2021/07/30 05:35:59;;;;;;;4.53;2.78;;;15.90;63.20;;;;;;5078397;28;20431;-89
2021/07/30 05:38:26;;;;;;;4.35;2.35;;;15.80;64.00;;;;;;5073102;28;20378;-89
2021/07/30 05:40:53;;;;;;;3.40;1.70;;;15.70;63.30;;;;;;5069834;28;20469;-90
2021/07/30 05:43:20;;;;;;;3.90;2.23;;;15.70;63.70;;;;;;5074335;28;20374;-89
2021/07/30 05:45:47;;;;;;;12.80;8.87;;;15.70;62.30;;;;;;5071626;28;20410;-89
2021/07/30 05:48:14;;;;;;;6.97;5.20;;;15.70;62.90;;;;;;5071942;28;20451;-89
2021/07/30 05:50:41;;;;;;;3.83;2.10;;;15.70;63.90;;;;;;5070051;28;20477;-88
2021/07/30 05:53:08;;;;;;;7.03;4.22;;;15.60;62.90;;;;;;5053724;28;20394;-93
2021/07/30 05:55:37;;;;;;;5.40;2.80;;;15.60;63.80;;;;;;5049953;28;20394;-88
2021/07/30 05:58:04;;;;;;;2.87;2.00;;;15.50;63.50;;;;;;5067736;28;20461;-89
2021/07/30 06:00:32;;;;;;;4.60;2.13;;;15.50;63.30;;;;;;5070970;28;20409;-88
2021/07/30 06:02:59;;;;;;;2.72;0.80;;;15.40;64.10;;;;;;5071866;28;20385;-88
2021/07/30 06:05:26;;;;;;;2.25;1.02;;;15.50;61.80;;;;;;5071321;28;20393;-90
2021/07/30 06:07:56;;;;;;;1.30;1.00;;;15.50;62.70;;;;;;5065899;28;20466;-88
2021/07/30 06:10:23;;;;;;;4.20;1.30;;;15.50;63.60;;;;;;5066477;28;20406;-88
2021/07/30 06:12:50;;;;;;;2.72;1.65;;;15.50;63.80;;;;;;5063268;28;20391;-89
2021/07/30 06:15:22;;;;;;;2.08;1.58;;;15.40;64.50;;;;;;5070565;28;20764;-88
2021/07/30 06:17:49;;;;;;;3.03;0.90;;;15.30;65.40;;;;;;5069126;28;20386;-90
2021/07/30 06:20:17;;;;;;;1.40;0.82;;;15.30;66.30;;;;;;5077748;28;20411;-88
2021/07/30 06:22:44;;;;;;;1.50;0.88;;;15.30;67.10;;;;;;5068333;28;20382;-89
2021/07/30 06:25:12;;;;;;;2.33;0.90;;;15.20;68.90;;;;;;5065939;28;20448;-88
2021/07/30 06:27:39;;;;;;;4.88;1.08;;;15.10;69.20;;;;;;5069479;28;20390;-88
2021/07/30 06:30:08;;;;;;;3.22;1.08;;;15.00;70.10;;;;;;5063743;28;20389;-90
2021/07/30 06:32:39;;;;;;;3.20;1.10;;;14.90;71.00;;;;;;5073097;28;20466;-92
2021/07/30 06:35:07;;;;;;;2.47;1.00;;;14.80;71.50;;;;;;5071696;28;20491;-90
2021/07/30 06:37:35;;;;;;;2.22;1.00;;;14.70;73.00;;;;;;5053294;28;20899;-89
2021/07/30 06:40:04;;;;;;;3.45;1.38;;;14.60;73.30;;;;;;5071791;28;20748;-91
2021/07/30 06:42:35;;;;;;;3.55;1.23;;;14.50;75.30;;;;;;5071346;28;20384;-92
2021/07/30 06:45:04;;;;;;;3.22;1.10;;;14.40;77.00;;;;;;5074873;28;20389;-87
2021/07/30 06:47:32;;;;;;;3.60;0.82;;;14.40;77.50;;;;;;5092473;28;20393;-88
2021/07/30 06:49:59;;;;;;;3.30;0.80;;;14.30;79.00;;;;;;5095884;28;20909;-89
2021/07/30 06:52:26;;;;;;;3.45;1.30;;;14.30;80.70;;;;;;5093845;28;20368;-89
2021/07/30 06:54:56;;;;;;;5.30;0.98;;;14.20;81.50;;;;;;5074931;28;20408;-91
2021/07/30 06:57:23;;;;;;;3.70;0.85;;;14.10;83.40;;;;;;5083884;28;20388;-91
2021/07/30 06:59:50;;;;;;;4.80;1.17;;;14.10;84.90;;;;;;5070485;28;20488;-90
2021/07/30 07:02:18;;;;;;;2.30;0.90;;;13.90;86.80;;;;;;5082567;28;20388;-91
2021/07/30 07:04:45;;;;;;;4.75;1.00;;;13.80;87.90;;;;;;5093119;28;20993;-90
2021/07/30 07:07:12;;;;;;;3.55;1.10;;;13.70;90.40;;;;;;5089487;28;20767;-91
2021/07/30 07:09:39;;;;;;;3.45;1.30;;;13.60;90.90;;;;;;5096855;28;20391;-90
2021/07/30 07:12:06;;;;;;;6.17;1.50;;;13.50;91.70;;;;;;5090779;28;20396;-91
2021/07/30 07:14:33;;;;;;;3.22;1.20;;;13.40;92.60;;;;;;5088654;28;20388;-92
2021/07/30 07:17:00;;;;;;;3.08;1.17;;;13.30;93.30;;;;;;5091383;28;20473;-90
2021/07/30 07:19:27;;;;;;;3.38;1.05;;;13.20;94.00;;;;;;5090737;28;20778;-87
2021/07/30 07:21:54;;;;;;;4.25;1.20;;;13.20;94.50;;;;;;5083266;28;20989;-90
2021/07/30 07:24:21;;;;;;;5.53;1.73;;;13.10;95.30;;;;;;5088227;28;20392;-89
2021/07/30 07:26:51;;;;;;;2.80;1.40;;;13.00;96.20;;;;;;5088149;28;20408;-89
2021/07/30 07:29:18;;;;;;;4.13;1.45;;;13.00;96.50;;;;;;5060744;28;20395;-89
2021/07/30 07:31:46;;;;;;;3.28;1.10;;;12.90;97.30;;;;;;5093046;28;20452;-90
2021/07/30 07:34:13;;;;;;;3.33;1.37;;;12.80;98.00;;;;;;5070620;28;20494;-89
2021/07/30 07:36:40;;;;;;;4.38;1.30;;;12.70;98.70;;;;;;5094544;28;20900;-92
2021/07/30 07:39:07;;;;;;;4.68;1.40;;;12.60;99.10;;;;;;5087739;28;20420;-93
2021/07/30 07:41:35;;;;;;;3.08;1.33;;;12.60;99.70;;;;;;5075651;28;20418;-92
2021/07/30 07:44:02;;;;;;;3.28;1.60;;;12.50;99.90;;;;;;5068516;28;20773;-90
2021/07/30 07:46:29;;;;;;;4.15;2.08;;;12.40;99.90;;;;;;5090923;28;20442;-90
2021/07/30 07:48:56;;;;;;;3.60;2.00;;;12.40;99.90;;;;;;5091853;28;20495;-92
2021/07/30 07:51:23;;;;;;;5.77;2.50;;;12.30;99.90;;;;;;5071726;28;20407;-93
2021/07/30 07:53:50;;;;;;;6.85;2.42;;;12.30;99.90;;;;;;5079997;28;20404;-91
2021/07/30 07:56:17;;;;;;;4.85;1.75;;;12.30;99.90;;;;;;5096059;28;21067;-91
2021/07/30 07:58:44;;;;;;;2.88;1.55;;;12.20;99.90;;;;;;5067651;28;20384;-92
2021/07/30 08:01:14;;;;;;;3.83;1.42;;;12.30;99.90;;;;;;5077508;28;20388;-93
2021/07/30 08:03:44;;;;;;;4.93;1.33;;;12.20;99.90;;;;;;5092820;28;20369;-92
2021/07/30 08:06:21;;;;;;;7.00;1.90;;;12.10;99.90;;;;;;5074892;28;20404;-93
2021/07/30 08:08:49;;;;;;;4.40;1.70;;;12.10;99.90;;;;;;5075192;28;20935;-95
2021/07/30 08:11:17;;;;;;;6.63;2.33;;;11.90;99.90;;;;;;5069374;28;21333;-90
2021/07/30 08:13:44;;;;;;;6.93;2.10;;;11.90;99.90;;;;;;5068874;28;20384;-90
2021/07/30 08:16:11;;;;;;;7.30;2.83;;;11.80;99.90;;;;;;5070305;28;21102;-89
2021/07/30 08:18:38;;;;;;;6.57;2.50;;;11.70;99.90;;;;;;5095234;28;20381;-91
2021/07/30 08:21:05;;;;;;;7.83;2.33;;;11.60;99.90;;;;;;5095299;28;20971;-90
2021/07/30 08:23:51;;;;;;;5.10;2.40;;;11.60;99.90;;;;;;5089619;28;20390;-91
2021/07/30 08:26:18;;;;;;;5.22;2.15;;;11.60;99.90;;;;;;5079593;28;20396;-90
2021/07/30 08:28:45;;;;;;;5.07;2.55;;;11.60;99.90;;;;;;5070473;28;20393;-93
2021/07/30 08:31:12;;;;;;;5.27;2.17;;;11.60;99.90;;;;;;5087304;28;20501;-89
2021/07/30 08:33:42;;;;;;;5.30;2.00;;;11.70;99.90;;;;;;5067747;28;20393;-88
2021/07/30 08:36:09;;;;;;;4.40;1.60;;;11.70;99.90;;;;;;5090744;28;20384;-90
2021/07/30 08:38:36;;;;;;;8.63;2.35;;;11.70;99.90;;;;;;5093073;28;20503;-91
2021/07/30 08:41:03;;;;;;;6.07;2.60;;;11.60;99.90;;;;;;5085187;28;20401;-90
2021/07/30 08:43:51;;;;;;;5.47;2.60;;;11.40;99.90;;;;;;5090912;28;20389;-86
2021/07/30 08:46:22;;;;;;;7.25;2.55;;;11.30;99.90;;;;;;5077547;28;20405;-87
2021/07/30 08:48:50;;;;;;;10.77;2.65;;;11.10;99.90;;;;;;5071221;28;21835;-85
2021/07/30 08:51:19;;;;;;;6.68;1.85;;;11.00;99.90;;;;;;5068782;28;20524;-85
2021/07/30 08:53:46;;;;;;;9.70;2.10;;;11.10;99.90;;;;;;5069581;28;20812;-85
2021/07/30 08:56:15;;;;;;;5.72;2.10;;;11.10;99.90;;;;;;5067032;28;20394;-86
2021/07/30 08:58:43;;;;;;;6.80;2.08;;;11.10;99.90;;;;;;5066874;28;20398;-88
2021/07/30 09:01:12;;;;;;;5.47;2.08;;;11.10;99.90;;;;;;5045485;28;20409;-85
2021/07/30 09:03:40;;;;;;;8.07;3.20;;;11.10;99.90;;;;;;5065882;28;20516;-85
2021/07/30 09:06:21;;;;;;;5.78;2.30;;;11.00;99.90;;;;;;5064587;28;20393;-85
2021/07/30 09:09:05;;;;;;;7.80;3.22;;;11.00;99.90;;;;;;5066086;28;20403;-85
2021/07/30 09:11:36;;;;;;;8.33;3.00;;;10.90;99.90;;;;;;5063425;28;20410;-85
2021/07/30 09:14:05;;;;;;;8.40;4.20;;;10.80;99.90;;;;;;5069427;28;20393;-85
2021/07/30 09:16:48;;;;;;;6.03;3.65;;;10.70;99.90;;;;;;5066381;28;20427;-84
2021/07/30 09:19:15;;;;;;;8.43;4.45;;;10.60;99.90;;;;;;5070887;28;20943;-84
2021/07/30 09:21:42;;;;;;;9.23;4.23;;;10.50;99.90;;;;;;5070984;28;20398;-84
2021/07/30 09:24:15;;;;;;;6.00;3.67;;;10.40;99.90;;;;;;5066544;28;20390;-84
2021/07/30 09:26:43;;;;;;;11.13;4.30;;;10.30;99.90;;;;;;5047854;28;20483;-84
2021/07/30 09:29:11;;;;;;;6.18;3.60;;;10.30;99.90;;;;;;5048496;28;20805;-85
2021/07/30 09:31:58;;;;;;;10.77;4.80;;;10.20;99.90;;;;;;5063817;28;20399;-84
2021/07/30 09:34:38;;;;;;;6.73;2.97;;;10.20;99.90;;;;;;5062511;28;20390;-84
2021/07/30 09:37:08;;;;;;;6.57;3.00;;;10.10;99.90;;;;;;5066521;28;20398;-85
2021/07/30 09:39:35;;;;;;;7.03;3.30;;;10.00;99.90;;;;;;5065432;28;20481;-86
2021/07/30 09:42:04;;;;;;;8.50;3.42;;;10.00;99.90;;;;;;5061824;28;20413;-85
2021/07/30 09:44:36;;;;;;;11.25;3.55;;;9.90;99.90;;;;;;5063137;28;20406;-86
2021/07/30 09:47:15;;;;;;;6.50;3.15;;;9.90;99.90;;;;;;5058431;28;20405;-85
2021/07/30 09:49:47;;;;;;;8.88;3.25;;;9.80;99.90;;;;;;5067310;28;20394;-85
2021/07/30 09:52:16;;;;;;;8.68;3.28;;;9.80;99.90;;;;;;5065624;28;20405;-83
2021/07/30 09:55:00;;;;;;;9.00;3.00;;;9.70;99.90;;;;;;5067333;28;20390;-84
2021/07/30 09:57:31;;;;;;;5.28;2.22;;;9.80;99.90;;;;;;5063428;28;20436;-84
2021/07/30 10:00:07;;;;;;;5.70;2.03;;;9.80;99.90;;;;;;5066339;28;20405;-84
2021/07/30 10:02:35;;;;;;;5.40;2.28;;;9.90;99.90;;;;;;5067078;28;20370;-84
2021/07/30 10:05:04;;;;;;;6.35;2.20;;;10.00;99.90;;;;;;5065556;28;20409;-84
2021/07/30 10:07:33;;;;;;;5.13;2.05;;;10.00;99.90;;;;;;5067384;28;20482;-83
2021/07/30 10:10:05;;;;;;;6.40;2.63;;;9.90;99.90;;;;;;5067885;28;20412;-85
2021/07/30 10:12:36;;;;;;;5.55;2.30;;;9.90;99.90;;;;;;5068653;28;20745;-85
2021/07/30 10:15:06;;;;;;;7.28;2.55;;;9.80;99.90;;;;;;5067987;28;20358;-86
2021/07/30 10:17:35;;;;;;;4.82;2.45;;;9.80;99.90;;;;;;5068154;28;20378;-86
2021/07/30 10:20:04;;;;;;;8.63;2.90;;;9.90;99.90;;;;;;5067921;28;20418;-85
2021/07/30 10:22:45;;;;;;;5.00;2.70;;;9.90;99.90;;;;;;5067866;28;20481;-85
2021/07/30 10:25:18;;;;;;;6.68;2.10;;;9.90;99.90;;;;;;5067503;28;20409;-86
2021/07/30 10:27:46;;;;;;;6.00;2.40;;;9.90;99.90;;;;;;5051237;28;20506;-85
2021/07/30 10:30:16;;;;;;;5.28;2.50;;;9.90;99.90;;;;;;5069247;28;20397;-85
2021/07/30 10:32:52;;;;;;;7.10;2.55;;;9.80;99.90;;;;;;5067982;28;20892;-85
2021/07/30 10:35:41;;;;;;;7.22;2.70;;;9.70;99.90;;;;;;5067714;28;20394;-86
2021/07/30 10:38:21;;;;;;;6.70;2.50;;;9.60;99.90;;;;;;5066647;28;20393;-85
2021/07/30 10:41:06;;;;;;;5.25;2.70;;;9.40;99.90;;;;;;5067395;28;20473;-86
2021/07/30 10:44:03;;;;;;;6.73;3.30;;;9.30;99.90;;;;;;5068614;28;20755;-86
2021/07/30 10:46:31;;;;;;;6.05;3.40;;;9.20;99.90;;;;;;5058661;28;21006;-86
2021/07/30 10:48:58;;;;;;;9.88;4.30;;;9.20;99.90;;;;;;5067892;28;20423;-86
2021/07/30 10:51:32;;;;;;;8.25;4.30;;;9.00;99.90;;;;;;5068845;28;20389;-86
2021/07/30 10:53:59;;;;;;;9.65;4.68;;;9.00;99.90;;;;;;5068354;28;20967;-85
2021/07/30 10:56:29;;;;;;;11.10;4.45;;;8.90;99.90;;;;;;5068032;28;20862;-84
2021/07/30 10:58:57;;;;;;;10.30;5.27;;;8.90;99.90;;;;;;5066654;28;20410;-86
2021/07/30 11:01:43;;;;;;;6.78;3.80;;;8.80;99.90;;;;;;5067934;28;20472;-85
2021/07/30 11:04:13;;;;;;;7.50;3.75;;;8.90;99.90;;;;;;5069146;28;20409;-85
2021/07/30 11:06:41;;;;;;;7.78;3.70;;;8.80;99.90;;;;;;5076598;28;20906;-85
2021/07/30 11:09:17;;;;;;;9.53;4.07;;;8.80;99.90;;;;;;5076811;28;20397;-86
2021/07/30 11:11:52;;;;;;;5.95;3.22;;;8.80;99.90;;;;;;5074731;28;20381;-86
2021/07/30 11:14:20;;;;;;;7.43;3.97;;;8.70;99.90;;;;;;5072189;28;20429;-86
2021/07/30 11:16:51;;;;;;;8.85;4.40;;;8.80;99.90;;;;;;5072688;28;20419;-85
2021/07/30 11:19:20;;;;;;;6.45;3.97;;;8.70;99.90;;;;;;5068552;28;20393;-85
2021/07/30 11:21:47;;;;;;;8.30;4.80;;;8.80;99.90;;;;;;5093173;28;20479;-82
2021/07/30 11:24:17;;;;;;;8.40;4.72;;;8.70;99.90;;;;;;5072214;28;20386;-83
2021/07/30 11:26:47;;;;;;;10.17;4.87;;;8.70;99.90;;;;;;5064621;28;20405;-84
2021/07/30 11:29:20;;;;;;;11.52;5.38;;;8.70;99.90;;;;;;5077940;28;20470;-84
2021/07/30 11:31:58;;;;;;;9.23;4.70;;;8.70;99.90;;;;;;5050841;28;20769;-83
2021/07/30 11:34:29;;;;;;;7.72;4.47;;;8.70;99.90;;;;;;5076471;28;20455;-84
2021/07/30 11:37:04;;;;;;;7.88;4.07;;;8.70;99.90;;;;;;5069249;28;21116;-84
2021/07/30 11:39:44;;;;;;;7.35;4.57;;;8.60;99.90;;;;;;5067586;28;20762;-82
2021/07/30 11:42:34;;;;;;;8.02;4.13;;;8.60;99.90;;;;;;5056757;28;20401;-84
2021/07/30 11:45:07;;;;;;;7.90;4.30;;;8.50;99.90;;;;;;5057958;28;20708;-84
2021/07/30 11:47:39;;;;;;;5.55;4.20;;;8.50;99.90;;;;;;5072613;28;20466;-85
2021/07/30 11:50:11;;;;;;;7.57;4.35;;;8.40;99.90;;;;;;5054233;28;20405;-84
2021/07/30 11:52:39;;;;;;;6.40;3.75;;;8.40;99.90;;;;;;5070005;28;20488;-84
2021/07/30 11:55:18;;;;;;;5.75;4.28;;;8.50;99.90;;;;;;5068860;28;20482;-83
2021/07/30 11:57:49;;;;;;;5.65;3.67;;;8.50;99.90;;;;;;5068576;28;20406;-84
2021/07/30 12:00:24;;;;;;;6.82;3.78;;;8.60;99.90;;;;;;5068123;28;20407;-85
2021/07/30 12:02:55;;;;;;;7.13;3.80;;;8.70;99.90;;;;;;5054593;28;20449;-84
2021/07/30 12:05:41;;;;;;;9.32;3.95;;;8.80;99.90;;;;;;5066096;28;20406;-84
2021/07/30 12:08:08;;;;;;;6.30;3.67;;;8.90;99.90;;;;;;5069136;28;20404;-82
2021/07/30 12:10:37;;;;;;;4.70;3.00;;;9.00;99.90;;;;;;5072184;28;20394;-82
2021/07/30 12:13:06;;;;;;;4.93;3.30;;;9.00;99.90;;;;;;5085475;28;20773;-83
2021/07/30 12:15:33;;;;;;;4.38;3.42;;;9.00;99.90;;;;;;5071174;28;20389;-84
2021/07/30 12:18:02;;;;;;;5.57;3.25;;;9.00;99.90;;;;;;5064521;28;20912;-84
2021/07/30 12:20:38;;;;;;;7.35;4.50;;;9.10;99.90;;;;;;5051490;28;20930;-83
2021/07/30 12:23:14;;;;;;;6.87;3.83;;;9.00;99.90;;;;;;5069278;28;20472;-83
2021/07/30 12:25:48;;;;;;;13.57;8.65;;;9.00;99.90;;;;;;5073554;28;20394;-84
2021/07/30 12:28:17;;;;;;;12.15;8.63;;;8.90;99.90;;;;;;5067690;28;20394;-83
2021/07/30 12:30:52;;;;;;;9.35;6.60;;;8.90;99.90;;;;;;5069925;28;20393;-83
2021/07/30 12:33:24;;;;;;;14.25;10.90;;;8.90;99.90;;;;;;5068951;28;20473;-83
2021/07/30 12:36:14;;;;;;;26.00;17.23;;;8.90;99.90;;;;;;5070528;28;20386;-84
2021/07/30 12:38:53;;;;;;;21.83;15.48;;;8.80;99.90;;;;;;5070659;28;20374;-83
2021/07/30 12:41:25;;;;;;;26.33;18.90;;;8.70;99.90;;;;;;5069439;28;20889;-83
2021/07/30 12:43:53;;;;;;;28.23;21.42;;;8.60;99.90;;;;;;5070710;28;20394;-83
2021/07/30 12:46:52;;;;;;;39.15;26.33;;;8.50;99.90;;;;;;5067554;28;20413;-83
2021/07/30 12:49:33;;;;;;;31.50;22.38;;;8.40;99.90;;;;;;5051876;28;21207;-83
2021/07/30 12:52:11;;;;;;;30.53;21.83;;;8.30;99.90;;;;;;5053850;28;20400;-84
2021/07/30 12:54:38;;;;;;;22.35;15.73;;;8.30;99.90;;;;;;5058719;28;20931;-83
2021/07/30 12:57:05;;;;;;;24.13;16.08;;;8.40;99.90;;;;;;5067507;28;20767;-83
2021/07/30 13:00:08;;;;;;;26.67;19.17;;;8.50;99.90;;;;;;5068225;28;20763;-83
2021/07/30 13:02:39;;;;;;;21.60;16.02;;;8.40;99.90;;;;;;5067083;28;20394;-84
2021/07/30 13:05:08;;;;;;;17.95;13.93;;;8.40;99.90;;;;;;5065469;28;20481;-83